Time,TemperatureF,DewpointF,PressureIn,WindDirection,WindDirectionDegrees,WindSpeedMPH,WindSpeedGustMPH,Humidity,HourlyPrecipIn,Conditions,Clouds,dailyrainin,SoftwareType,DateUTC
2013-10-04 00:00:00,67.3,64.3,30.07,SSW,199,0.0,4.0,90,0.00,,,0.29,VWS V14.01,2013-10-04 04:00:00,
2013-10-04 00:02:00,66.1,63.7,30.07,SSW,199,0.0,4.0,92,0.00,,,0.00,VWS V14.01,2013-10-04 04:02:00,
2013-10-04 00:07:00,66.1,64.0,30.07,SSW,199,0.0,4.0,93,0.00,,,0.00,VWS V14.01,2013-10-04 04:07:00,
2013-10-04 00:10:00,66.3,64.2,30.07,SSW,199,0.0,4.0,93,0.00,,,0.00,VWS V14.01,2013-10-04 04:10:00,
2013-10-04 00:12:00,66.3,64.2,30.07,SSW,199,0.0,4.0,93,0.00,,,0.00,VWS V14.01,2013-10-04 04:12:00,
2013-10-04 00:17:00,66.3,64.2,30.06,SSW,199,0.0,4.0,93,0.00,,,0.00,VWS V14.01,2013-10-04 04:17:00,
2013-10-04 00:20:00,66.9,64.2,30.06,SSW,199,0.0,4.0,91,0.00,,,0.00,VWS V14.01,2013-10-04 04:20:00,
2013-10-04 00:22:00,66.1,64.0,30.06,SSW,199,0.0,4.0,93,0.00,,,0.00,VWS V14.01,2013-10-04 04:22:00,
2013-10-04 00:27:00,66.1,64.0,30.06,SSW,199,0.0,4.0,93,0.00,,,0.00,VWS V14.01,2013-10-04 04:27:00,
2013-10-04 00:30:00,66.1,64.0,30.05,SSW,199,0.0,4.0,93,0.00,,,0.00,VWS V14.01,2013-10-04 04:30:00,
2013-10-04 00:32:00,66.1,64.0,30.05,SSW,199,0.0,4.0,93,0.00,,,0.00,VWS V14.01,2013-10-04 04:32:00,
2013-10-04 00:37:00,66.1,64.3,30.05,SSW,199,0.0,4.0,94,0.00,,,0.00,VWS V14.01,2013-10-04 04:37:00,
2013-10-04 00:40:00,66.1,64.3,30.05,SSW,199,0.0,4.0,94,0.00,,,0.00,VWS V14.01,2013-10-04 04:40:00,
2013-10-04 00:42:00,66.1,64.3,30.05,SSW,199,0.0,4.0,94,0.00,,,0.00,VWS V14.01,2013-10-04 04:42:00,
2013-10-04 00:47:00,66.0,64.2,30.06,SSW,199,0.0,4.0,94,0.00,,,0.00,VWS V14.01,2013-10-04 04:47:00,
2013-10-04 00:50:00,66.0,64.2,30.06,SSW,199,0.0,4.0,94,0.00,,,0.00,VWS V14.01,2013-10-04 04:50:00,
2013-10-04 00:52:00,66.0,64.2,30.06,SSW,199,0.0,4.0,94,0.00,,,0.00,VWS V14.01,2013-10-04 04:52:00,
2013-10-04 00:57:00,65.8,64.0,30.06,SSW,199,0.0,4.0,94,0.00,,,0.00,VWS V14.01,2013-10-04 04:57:00,
2013-10-04 01:00:00,65.8,64.0,30.06,SSW,199,0.0,4.0,94,0.00,,,0.00,VWS V14.01,2013-10-04 05:00:00,
2013-10-04 01:02:00,65.8,64.0,30.06,SSW,199,0.0,4.0,94,0.00,,,0.00,VWS V14.01,2013-10-04 05:02:00,
2013-10-04 01:07:00,65.6,63.8,30.06,SSW,199,0.0,4.0,94,0.00,,,0.00,VWS V14.01,2013-10-04 05:07:00,
2013-10-04 01:10:00,65.6,63.8,30.06,SSW,199,0.0,4.0,94,0.00,,,0.00,VWS V14.01,2013-10-04 05:10:00,
2013-10-04 01:12:00,65.6,63.8,30.06,SSW,199,0.0,4.0,94,0.00,,,0.00,VWS V14.01,2013-10-04 05:12:00,
2013-10-04 01:17:00,65.6,63.8,30.06,SSW,199,0.0,4.0,94,0.00,,,0.00,VWS V14.01,2013-10-04 05:17:00,
2013-10-04 01:20:00,65.5,63.7,30.06,SSW,199,0.0,4.0,94,0.00,,,0.00,VWS V14.01,2013-10-04 05:20:00,
2013-10-04 01:22:00,65.5,63.7,30.06,SSW,199,0.0,4.0,94,0.00,,,0.00,VWS V14.01,2013-10-04 05:22:00,
2013-10-04 01:27:00,65.5,63.7,30.06,SSW,199,0.0,4.0,94,0.00,,,0.00,VWS V14.01,2013-10-04 05:27:00,
2013-10-04 01:30:00,65.3,63.5,30.05,SSW,199,0.0,4.0,94,0.00,,,0.00,VWS V14.01,2013-10-04 05:30:00,
2013-10-04 01:32:00,65.3,63.5,30.05,SSW,199,0.0,4.0,94,0.00,,,0.00,VWS V14.01,2013-10-04 05:32:00,
2013-10-04 01:37:00,65.2,63.4,30.05,SSW,199,0.0,4.0,94,0.00,,,0.00,VWS V14.01,2013-10-04 05:37:00,
2013-10-04 01:40:00,65.2,63.4,30.05,SSW,199,0.0,4.0,94,0.00,,,0.00,VWS V14.01,2013-10-04 05:40:00,
2013-10-04 01:42:00,65.2,63.4,30.05,SSW,199,0.0,4.0,94,0.00,,,0.00,VWS V14.01,2013-10-04 05:42:00,
2013-10-04 01:47:00,65.2,63.4,30.06,SSW,199,0.0,4.0,94,0.00,,,0.00,VWS V14.01,2013-10-04 05:47:00,
2013-10-04 01:50:00,65.2,63.4,30.06,SSW,199,0.0,4.0,94,0.00,,,0.00,VWS V14.01,2013-10-04 05:50:00,
2013-10-04 01:52:00,65.2,63.4,30.06,SSW,199,0.0,4.0,94,0.00,,,0.00,VWS V14.01,2013-10-04 05:52:00,
2013-10-04 01:57:00,65.2,63.4,30.06,SSW,199,0.0,4.0,94,0.00,,,0.00,VWS V14.01,2013-10-04 05:57:00,
2013-10-04 02:00:00,65.0,63.2,30.06,SSW,199,0.0,4.0,94,0.00,,,0.00,VWS V14.01,2013-10-04 06:00:00,
2013-10-04 02:02:00,65.0,63.2,30.06,SSW,199,0.0,4.0,94,0.00,,,0.00,VWS V14.01,2013-10-04 06:02:00,
2013-10-04 02:07:00,65.0,63.2,30.06,SSW,199,0.0,4.0,94,0.00,,,0.00,VWS V14.01,2013-10-04 06:07:00,
2013-10-04 02:10:00,65.0,63.2,30.06,SSW,199,0.0,4.0,94,0.00,,,0.00,VWS V14.01,2013-10-04 06:10:00,
2013-10-04 02:12:00,64.8,63.0,30.06,SSW,199,0.0,4.0,94,0.00,,,0.00,VWS V14.01,2013-10-04 06:12:00,
2013-10-04 02:17:00,64.8,63.0,30.05,SSW,199,0.0,4.0,94,0.00,,,0.00,VWS V14.01,2013-10-04 06:17:00,
2013-10-04 02:20:00,64.7,62.9,30.05,SSW,199,0.0,4.0,94,0.00,,,0.00,VWS V14.01,2013-10-04 06:20:00,
2013-10-04 02:22:00,64.7,62.9,30.05,SSW,199,0.0,4.0,94,0.00,,,0.00,VWS V14.01,2013-10-04 06:22:00,
2013-10-04 02:27:00,64.5,62.7,30.05,SSW,199,0.0,4.0,94,0.00,,,0.00,VWS V14.01,2013-10-04 06:27:00,
2013-10-04 02:30:00,64.5,62.7,30.05,SSW,199,0.0,4.0,94,0.00,,,0.00,VWS V14.01,2013-10-04 06:30:00,
2013-10-04 02:32:00,64.5,62.7,30.05,SSW,199,0.0,4.0,94,0.00,,,0.00,VWS V14.01,2013-10-04 06:32:00,
2013-10-04 02:37:00,64.5,63.0,30.05,SSW,199,0.0,4.0,95,0.00,,,0.00,VWS V14.01,2013-10-04 06:37:00,
2013-10-04 02:40:00,64.5,63.0,30.05,SSW,199,0.0,4.0,95,0.00,,,0.00,VWS V14.01,2013-10-04 06:40:00,
2013-10-04 02:42:00,64.5,62.7,30.05,SSW,199,0.0,4.0,94,0.00,,,0.00,VWS V14.01,2013-10-04 06:42:00,
2013-10-04 02:47:00,64.3,62.5,30.05,SSW,199,0.0,4.0,94,0.00,,,0.00,VWS V14.01,2013-10-04 06:47:00,
2013-10-04 02:50:00,64.3,62.8,30.05,SSW,199,0.0,4.0,95,0.00,,,0.00,VWS V14.01,2013-10-04 06:50:00,
2013-10-04 02:52:00,64.3,62.5,30.05,SSW,199,0.0,4.0,94,0.00,,,0.00,VWS V14.01,2013-10-04 06:52:00,
2013-10-04 02:57:00,64.2,62.4,30.05,SSW,199,0.0,4.0,94,0.00,,,0.00,VWS V14.01,2013-10-04 06:57:00,
2013-10-04 03:00:00,64.2,62.4,30.06,SSW,199,0.0,4.0,94,0.00,,,0.00,VWS V14.01,2013-10-04 07:00:00,
2013-10-04 03:07:00,64.0,62.5,30.06,SSW,199,0.0,4.0,95,0.00,,,0.00,VWS V14.01,2013-10-04 07:07:00,
2013-10-04 03:10:00,65.0,63.2,30.06,SSW,199,0.0,4.0,94,0.00,,,0.00,VWS V14.01,2013-10-04 07:10:00,
2013-10-04 03:12:00,64.0,62.5,30.06,SSW,199,0.0,4.0,95,0.00,,,0.00,VWS V14.01,2013-10-04 07:12:00,
2013-10-04 03:20:00,63.9,62.4,30.06,SSW,199,0.0,4.0,95,0.00,,,0.00,VWS V14.01,2013-10-04 07:20:00,
2013-10-04 03:22:00,63.9,62.4,30.06,SSW,199,0.0,4.0,95,0.00,,,0.00,VWS V14.01,2013-10-04 07:22:00,
2013-10-04 03:27:00,63.7,62.2,30.06,SSW,199,0.0,4.0,95,0.00,,,0.00,VWS V14.01,2013-10-04 07:27:00,
2013-10-04 03:30:00,63.7,62.2,30.06,SSW,199,0.0,4.0,95,0.00,,,0.00,VWS V14.01,2013-10-04 07:30:00,
2013-10-04 03:40:00,63.7,62.2,30.06,SSW,199,0.0,4.0,95,0.00,,,0.00,VWS V14.01,2013-10-04 07:40:00,
2013-10-04 03:43:00,63.5,62.0,30.06,SSW,199,0.0,4.0,95,0.00,,,0.00,VWS V14.01,2013-10-04 07:43:00,
2013-10-04 03:48:00,63.5,62.0,30.07,SSW,199,0.0,4.0,95,0.00,,,0.00,VWS V14.01,2013-10-04 07:48:00,
2013-10-04 03:50:00,64.3,62.8,30.05,SSW,199,0.0,4.0,95,0.00,,,0.00,VWS V14.01,2013-10-04 07:50:00,
2013-10-04 03:52:00,63.7,62.2,30.07,SSW,199,0.0,4.0,95,0.00,,,0.00,VWS V14.01,2013-10-04 07:52:00,
2013-10-04 04:00:00,63.7,62.2,30.07,SSW,199,0.0,4.0,95,0.00,,,0.00,VWS V14.01,2013-10-04 08:00:00,
2013-10-04 04:03:00,63.7,62.2,30.07,SSW,199,0.0,4.0,95,0.00,,,0.00,VWS V14.01,2013-10-04 08:03:00,
2013-10-04 04:08:00,64.0,62.2,30.06,SSW,199,0.0,4.0,94,0.00,,,0.00,VWS V14.01,2013-10-04 08:08:00,
2013-10-04 04:10:00,63.5,62.0,30.07,SSW,199,0.0,4.0,95,0.00,,,0.00,VWS V14.01,2013-10-04 08:10:00,
2013-10-04 04:13:00,63.5,62.0,30.07,SSW,199,0.0,4.0,95,0.00,,,0.00,VWS V14.01,2013-10-04 08:13:00,
2013-10-04 04:15:00,64.0,62.2,30.06,SSW,199,0.0,4.0,94,0.00,,,0.00,VWS V14.01,2013-10-04 08:15:00,
2013-10-04 04:20:00,63.5,62.0,30.07,SSW,199,0.0,4.0,95,0.00,,,0.00,VWS V14.01,2013-10-04 08:20:00,
2013-10-04 04:23:00,63.9,62.4,30.06,SSW,199,0.0,4.0,95,0.00,,,0.00,VWS V14.01,2013-10-04 08:23:00,
2013-10-04 04:28:00,63.5,62.3,30.07,SSW,199,0.0,4.0,96,0.00,,,0.00,VWS V14.01,2013-10-04 08:28:00,
2013-10-04 04:30:00,63.7,62.2,30.06,SSW,199,0.0,4.0,95,0.00,,,0.00,VWS V14.01,2013-10-04 08:30:00,
2013-10-04 04:33:00,63.5,62.3,30.07,SSW,199,0.0,4.0,96,0.00,,,0.00,VWS V14.01,2013-10-04 08:33:00,
2013-10-04 04:38:00,63.7,62.2,30.06,SSW,199,0.0,4.0,95,0.00,,,0.00,VWS V14.01,2013-10-04 08:38:00,
2013-10-04 04:40:00,63.7,62.2,30.06,SSW,199,0.0,4.0,95,0.00,,,0.00,VWS V14.01,2013-10-04 08:40:00,
2013-10-04 04:43:00,63.7,62.2,30.06,SSW,199,0.0,4.0,95,0.00,,,0.00,VWS V14.01,2013-10-04 08:43:00,
2013-10-04 04:50:00,63.2,62.0,30.07,SSW,199,0.0,4.0,96,0.00,,,0.00,VWS V14.01,2013-10-04 08:50:00,
2013-10-04 04:53:00,63.2,62.0,30.07,SSW,199,0.0,4.0,96,0.00,,,0.00,VWS V14.01,2013-10-04 08:53:00,
2013-10-04 04:55:00,63.5,62.0,30.07,SSW,199,0.0,4.0,95,0.00,,,0.00,VWS V14.01,2013-10-04 08:55:00,
2013-10-04 04:58:00,63.4,62.2,30.07,SSW,199,0.0,4.0,96,0.00,,,0.00,VWS V14.01,2013-10-04 08:58:00,
2013-10-04 05:00:00,63.7,62.2,30.07,SSW,199,0.0,4.0,95,0.00,,,0.00,VWS V14.01,2013-10-04 09:00:00,
2013-10-04 05:03:00,63.7,62.2,30.07,SSW,199,0.0,4.0,95,0.00,,,0.00,VWS V14.01,2013-10-04 09:03:00,
2013-10-04 05:08:00,63.2,62.0,30.07,SSW,199,0.0,4.0,96,0.00,,,0.00,VWS V14.01,2013-10-04 09:08:00,
2013-10-04 05:10:00,63.2,62.0,30.07,SSW,199,0.0,4.0,96,0.00,,,0.00,VWS V14.01,2013-10-04 09:10:00,
2013-10-04 05:13:00,63.2,62.0,30.07,SSW,199,0.0,4.0,96,0.00,,,0.00,VWS V14.01,2013-10-04 09:13:00,
2013-10-04 05:20:00,63.4,62.2,30.08,SSW,199,0.0,4.0,96,0.00,,,0.00,VWS V14.01,2013-10-04 09:20:00,
2013-10-04 05:23:00,63.5,62.0,30.07,SSW,199,0.0,4.0,95,0.00,,,0.00,VWS V14.01,2013-10-04 09:23:00,
2013-10-04 05:28:00,63.4,62.0,30.08,SSW,199,0.0,4.0,95,0.00,,,0.00,VWS V14.01,2013-10-04 09:28:00,
2013-10-04 05:30:00,63.2,61.8,30.08,SSW,199,0.0,4.0,95,0.00,,,0.00,VWS V14.01,2013-10-04 09:30:00,
2013-10-04 05:33:00,63.2,61.8,30.08,SSW,199,0.0,4.0,95,0.00,,,0.00,VWS V14.01,2013-10-04 09:33:00,
2013-10-04 05:35:00,63.5,62.3,30.07,SSW,199,0.0,4.0,96,0.00,,,0.00,VWS V14.01,2013-10-04 09:35:00,
2013-10-04 05:38:00,63.2,61.8,30.08,SSW,199,0.0,4.0,95,0.00,,,0.00,VWS V14.01,2013-10-04 09:38:00,
2013-10-04 05:40:00,63.2,61.8,30.08,SSW,199,0.0,4.0,95,0.00,,,0.00,VWS V14.01,2013-10-04 09:40:00,
2013-10-04 05:43:00,63.4,62.2,30.07,SSW,199,0.0,4.0,96,0.00,,,0.00,VWS V14.01,2013-10-04 09:43:00,
2013-10-04 05:50:00,63.4,62.0,30.08,SSW,199,0.0,4.0,95,0.00,,,0.00,VWS V14.01,2013-10-04 09:50:00,
2013-10-04 05:53:00,63.4,62.2,30.07,SSW,199,0.0,4.0,96,0.00,,,0.00,VWS V14.01,2013-10-04 09:53:00,
2013-10-04 05:58:00,63.5,62.0,30.08,SSW,199,0.0,4.0,95,0.00,,,0.00,VWS V14.01,2013-10-04 09:58:00,
2013-10-04 06:00:00,63.5,62.0,30.09,SSW,199,0.0,4.0,95,0.00,,,0.00,VWS V14.01,2013-10-04 10:00:00,
2013-10-04 06:03:00,63.5,61.8,30.09,SSW,199,0.0,4.0,94,0.00,,,0.00,VWS V14.01,2013-10-04 10:03:00,
2013-10-04 06:05:00,63.4,62.2,30.07,SSW,199,0.0,4.0,96,0.00,,,0.00,VWS V14.01,2013-10-04 10:05:00,
2013-10-04 06:08:00,63.7,62.0,30.09,SSW,199,0.0,4.0,94,0.00,,,0.00,VWS V14.01,2013-10-04 10:08:00,
2013-10-04 06:10:00,63.2,62.0,30.07,SSW,199,0.0,4.0,96,0.00,,,0.00,VWS V14.01,2013-10-04 10:10:00,
2013-10-04 06:13:00,63.5,61.8,30.09,SSW,199,0.0,4.0,94,0.00,,,0.00,VWS V14.01,2013-10-04 10:13:00,
2013-10-04 06:20:00,63.4,62.2,30.08,SSW,199,0.0,4.0,96,0.00,,,0.00,VWS V14.01,2013-10-04 10:20:00,
2013-10-04 06:23:00,63.2,62.0,30.08,SSW,199,0.0,4.0,96,0.00,,,0.00,VWS V14.01,2013-10-04 10:23:00,
2013-10-04 06:28:00,63.4,62.2,30.08,SSW,199,0.0,4.0,96,0.00,,,0.00,VWS V14.01,2013-10-04 10:28:00,
2013-10-04 06:30:00,63.2,61.8,30.08,SSW,199,0.0,4.0,95,0.00,,,0.00,VWS V14.01,2013-10-04 10:30:00,
2013-10-04 06:40:00,63.4,61.7,30.10,SSW,199,0.0,4.0,94,0.00,,,0.00,VWS V14.01,2013-10-04 10:40:00,
2013-10-04 06:43:00,63.4,61.7,30.10,SSW,199,0.0,4.0,94,0.00,,,0.00,VWS V14.01,2013-10-04 10:43:00,
2013-10-04 06:48:00,63.4,61.7,30.10,SSW,199,0.0,4.0,94,0.00,,,0.00,VWS V14.01,2013-10-04 10:48:00,
2013-10-04 06:50:00,63.4,62.0,30.08,SSW,199,0.0,4.0,95,0.00,,,0.00,VWS V14.01,2013-10-04 10:50:00,
2013-10-04 06:53:00,63.2,61.8,30.08,SSW,199,0.0,4.0,95,0.00,,,0.00,VWS V14.01,2013-10-04 10:53:00,
2013-10-04 06:58:00,63.4,62.0,30.08,SSW,199,0.0,4.0,95,0.00,,,0.00,VWS V14.01,2013-10-04 10:58:00,
2013-10-04 07:00:00,63.4,61.7,30.10,SSW,199,0.0,4.0,94,0.00,,,0.00,VWS V14.01,2013-10-04 11:00:00,
2013-10-04 07:10:00,63.7,61.9,30.09,SSW,199,0.0,4.0,94,0.00,,,0.00,VWS V14.01,2013-10-04 11:10:00,
2013-10-04 07:15:00,63.7,62.0,30.09,SSW,199,0.0,4.0,94,0.00,,,0.00,VWS V14.01,2013-10-04 11:15:00,
2013-10-04 07:18:00,63.7,62.2,30.11,SSW,199,0.0,4.0,95,0.00,,,0.00,VWS V14.01,2013-10-04 11:18:00,
2013-10-04 07:20:00,63.5,61.8,30.10,SSW,199,0.0,4.0,94,0.00,,,0.00,VWS V14.01,2013-10-04 11:20:00,
2013-10-04 07:23:00,63.5,61.8,30.10,SSW,199,0.0,4.0,94,0.00,,,0.00,VWS V14.01,2013-10-04 11:23:00,
2013-10-04 07:28:00,63.5,61.8,30.10,SSW,199,0.0,4.0,94,0.00,,,0.00,VWS V14.01,2013-10-04 11:28:00,
2013-10-04 07:30:00,64.0,62.2,30.12,SSW,199,0.0,4.0,94,0.00,,,0.00,VWS V14.01,2013-10-04 11:30:00,
2013-10-04 07:33:00,63.4,61.7,30.10,SSW,199,0.0,4.0,94,0.00,,,0.00,VWS V14.01,2013-10-04 11:33:00,
2013-10-04 07:38:00,63.4,61.7,30.10,SSW,199,0.0,4.0,94,0.00,,,0.00,VWS V14.01,2013-10-04 11:38:00,
2013-10-04 07:40:00,64.3,62.5,30.12,SSW,199,0.0,4.0,94,0.00,,,0.00,VWS V14.01,2013-10-04 11:40:00,
2013-10-04 07:43:00,63.4,61.7,30.10,SSW,199,0.0,4.0,94,0.00,,,0.00,VWS V14.01,2013-10-04 11:43:00,
2013-10-04 07:50:00,63.4,61.7,30.10,SSW,199,0.0,4.0,94,0.00,,,0.00,VWS V14.01,2013-10-04 11:50:00,
2013-10-04 07:53:00,65.3,62.9,30.12,SSW,199,0.0,4.0,92,0.00,,,0.00,VWS V14.01,2013-10-04 11:53:00,
2013-10-04 07:55:00,63.4,61.7,30.10,SSW,199,0.0,4.0,94,0.00,,,0.00,VWS V14.01,2013-10-04 11:55:00,
2013-10-04 08:00:00,65.8,63.4,30.12,SSW,199,0.0,4.0,92,0.00,,,0.00,VWS V14.01,2013-10-04 12:00:00,
2013-10-04 08:03:00,63.4,61.7,30.10,SSW,199,0.0,4.0,94,0.00,,,0.00,VWS V14.01,2013-10-04 12:03:00,
2013-10-04 08:08:00,63.4,61.7,30.10,SSW,199,0.0,4.0,94,0.00,,,0.00,VWS V14.01,2013-10-04 12:08:00,
2013-10-04 08:10:00,63.4,61.7,30.10,SSW,199,0.0,4.0,94,0.00,,,0.00,VWS V14.01,2013-10-04 12:10:00,
2013-10-04 08:13:00,63.4,61.7,30.10,SSW,199,0.0,4.0,94,0.00,,,0.00,VWS V14.01,2013-10-04 12:13:00,
2013-10-04 08:18:00,63.5,61.8,30.10,SSW,199,0.0,4.0,94,0.00,,,0.00,VWS V14.01,2013-10-04 12:18:00,
2013-10-04 08:20:00,63.7,62.2,30.11,SSW,199,0.0,4.0,95,0.00,,,0.00,VWS V14.01,2013-10-04 12:20:00,
2013-10-04 08:25:00,63.7,62.2,30.11,SSW,199,0.0,4.0,95,0.00,,,0.00,VWS V14.01,2013-10-04 12:25:00,
2013-10-04 08:30:00,64.0,62.2,30.12,SSW,199,0.0,4.0,94,0.00,,,0.00,VWS V14.01,2013-10-04 12:30:00,
2013-10-04 08:33:00,64.0,62.2,30.11,SSW,199,0.0,4.0,94,0.00,,,0.00,VWS V14.01,2013-10-04 12:33:00,
2013-10-04 08:38:00,64.2,62.4,30.12,SSW,199,0.0,4.0,94,0.00,,,0.00,VWS V14.01,2013-10-04 12:38:00,
2013-10-04 08:40:00,64.3,62.5,30.12,SSW,199,0.0,4.0,94,0.00,,,0.00,VWS V14.01,2013-10-04 12:40:00,
2013-10-04 08:43:00,64.3,62.5,30.12,SSW,199,0.0,4.0,94,0.00,,,0.00,VWS V14.01,2013-10-04 12:43:00,
2013-10-04 08:50:00,65.0,62.9,30.12,SSW,199,0.0,4.0,93,0.00,,,0.00,VWS V14.01,2013-10-04 12:50:00,
2013-10-04 08:53:00,65.0,62.9,30.12,SSW,199,0.0,4.0,93,0.00,,,0.00,VWS V14.01,2013-10-04 12:53:00,
2013-10-04 09:00:00,65.8,63.4,30.12,SSW,199,0.0,4.0,92,0.00,,,0.00,VWS V14.01,2013-10-04 13:00:00,
2013-10-04 09:03:00,65.6,63.2,30.12,SSW,199,0.0,4.0,92,0.00,,,0.00,VWS V14.01,2013-10-04 13:03:00,
2013-10-04 09:08:00,66.0,63.3,30.12,SSW,199,0.0,4.0,91,0.00,,,0.00,VWS V14.01,2013-10-04 13:08:00,
2013-10-04 09:10:00,66.4,63.4,30.12,SSW,199,0.0,4.0,90,0.00,,,0.00,VWS V14.01,2013-10-04 13:10:00,
2013-10-04 09:13:00,66.3,63.3,30.12,SSW,199,0.0,4.0,90,0.00,,,0.00,VWS V14.01,2013-10-04 13:13:00,
2013-10-04 09:20:00,67.3,63.3,30.13,SSW,199,0.0,4.0,87,0.00,,,0.00,VWS V14.01,2013-10-04 13:20:00,
2013-10-04 09:23:00,67.1,63.1,30.13,SSW,199,0.0,4.0,87,0.00,,,0.00,VWS V14.01,2013-10-04 13:23:00,
2013-10-04 09:28:00,67.6,63.3,30.13,SSW,199,0.0,4.0,86,0.00,,,0.00,VWS V14.01,2013-10-04 13:28:00,
2013-10-04 09:30:00,68.3,63.3,30.13,SSW,199,0.0,4.0,84,0.00,,,0.00,VWS V14.01,2013-10-04 13:30:00,
2013-10-04 09:33:00,68.1,63.4,30.13,SSW,199,0.0,4.0,85,0.00,,,0.00,VWS V14.01,2013-10-04 13:33:00,
2013-10-04 09:38:00,68.6,63.2,30.13,SSW,199,0.0,4.0,83,0.00,,,0.00,VWS V14.01,2013-10-04 13:38:00,
2013-10-04 09:40:00,72.5,64.1,30.13,South,191,0.0,4.0,75,0.00,,,0.00,VWS V14.01,2013-10-04 13:40:00,
2013-10-04 09:43:00,68.9,63.2,30.13,SSW,199,0.0,4.0,82,0.00,,,0.00,VWS V14.01,2013-10-04 13:43:00,
2013-10-04 09:48:00,69.3,63.2,30.13,SSW,199,0.0,4.0,81,0.00,,,0.00,VWS V14.01,2013-10-04 13:48:00,
2013-10-04 09:50:00,69.8,63.4,30.13,South,188,0.0,4.0,80,0.00,,,0.00,VWS V14.01,2013-10-04 13:50:00,
2013-10-04 09:53:00,69.6,63.2,30.13,South,188,0.0,4.0,80,0.00,,,0.00,VWS V14.01,2013-10-04 13:53:00,
2013-10-04 10:00:00,70.4,63.6,30.13,South,188,0.0,4.0,79,0.00,,,0.00,VWS V14.01,2013-10-04 14:00:00,
2013-10-04 10:03:00,70.3,63.8,30.13,South,188,0.0,4.0,80,0.00,,,0.00,VWS V14.01,2013-10-04 14:03:00,
2013-10-04 10:08:00,70.6,63.4,30.13,South,188,0.0,4.0,78,0.00,,,0.00,VWS V14.01,2013-10-04 14:08:00,
2013-10-04 10:10:00,70.9,63.3,30.13,SSW,192,0.0,4.0,77,0.00,,,0.00,VWS V14.01,2013-10-04 14:10:00,
2013-10-04 10:13:00,70.9,63.7,30.13,SSW,192,0.0,4.0,78,0.00,,,0.00,VWS V14.01,2013-10-04 14:13:00,
2013-10-04 10:18:00,71.1,63.5,30.13,SSW,192,0.0,4.0,77,0.00,,,0.00,VWS V14.01,2013-10-04 14:18:00,
2013-10-04 10:20:00,71.3,63.7,30.13,South,190,0.0,4.0,77,0.00,,,0.00,VWS V14.01,2013-10-04 14:20:00,
2013-10-04 10:23:00,71.3,63.7,30.13,South,190,0.0,4.0,77,0.00,,,0.00,VWS V14.01,2013-10-04 14:23:00,
2013-10-04 10:28:00,71.5,63.9,30.13,South,187,0.0,4.0,77,0.00,,,0.00,VWS V14.01,2013-10-04 14:28:00,
2013-10-04 10:30:00,72.0,64.8,30.13,South,187,0.0,4.0,78,0.00,,,0.00,VWS V14.01,2013-10-04 14:30:00,
2013-10-04 10:33:00,71.8,64.2,30.13,South,187,0.0,4.0,77,0.00,,,0.00,VWS V14.01,2013-10-04 14:33:00,
2013-10-04 10:38:00,77.7,65.0,30.12,SW,220,0.0,4.0,65,0.00,,,0.00,VWS V14.01,2013-10-04 14:38:00,
2013-10-04 10:40:00,72.5,64.1,30.13,South,191,0.0,4.0,75,0.00,,,0.00,VWS V14.01,2013-10-04 14:40:00,
2013-10-04 10:43:00,72.5,64.1,30.13,South,191,0.0,4.0,75,0.00,,,0.00,VWS V14.01,2013-10-04 14:43:00,
2013-10-04 10:48:00,77.9,64.8,30.12,SW,220,0.0,4.0,64,0.00,,,0.00,VWS V14.01,2013-10-04 14:48:00,
2013-10-04 10:49:00,73.0,64.2,30.13,South,191,0.0,4.0,74,0.00,,,0.00,VWS V14.01,2013-10-04 14:49:00,
2013-10-04 10:50:00,77.7,65.0,30.12,SW,220,0.0,4.0,65,0.00,,,0.00,VWS V14.01,2013-10-04 14:50:00,
2013-10-04 10:55:00,73.7,63.7,30.12,SSW,192,0.0,4.0,71,0.00,,,0.00,VWS V14.01,2013-10-04 14:55:00,
2013-10-04 11:00:00,75.1,64.2,30.12,SSW,192,0.0,4.0,69,0.00,,,0.00,VWS V14.01,2013-10-04 15:00:00,
2013-10-04 11:04:00,74.9,64.1,30.12,SSW,192,0.0,4.0,69,0.00,,,0.00,VWS V14.01,2013-10-04 15:04:00,
2013-10-04 11:10:00,76.1,64.8,30.12,SW,220,0.0,4.0,68,0.00,,,0.00,VWS V14.01,2013-10-04 15:10:00,
2013-10-04 11:14:00,76.0,64.3,30.12,SSE,165,0.0,4.0,67,0.00,,,0.00,VWS V14.01,2013-10-04 15:14:00,
2013-10-04 11:19:00,76.3,64.6,30.12,SW,220,0.0,4.0,67,0.00,,,0.00,VWS V14.01,2013-10-04 15:19:00,
2013-10-04 11:20:00,76.3,64.6,30.12,SW,220,0.0,4.0,67,0.00,,,0.00,VWS V14.01,2013-10-04 15:20:00,
2013-10-04 11:23:00,77.7,65.4,30.12,SW,217,0.0,4.0,66,0.00,,,0.00,VWS V14.01,2013-10-04 15:23:00,
2013-10-04 11:24:00,76.3,64.6,30.12,SW,220,0.0,4.0,67,0.00,,,0.00,VWS V14.01,2013-10-04 15:24:00,
2013-10-04 11:29:00,76.3,65.0,30.12,SW,220,0.0,4.0,68,0.00,,,0.00,VWS V14.01,2013-10-04 15:29:00,
2013-10-04 11:30:00,76.7,64.5,30.12,SW,220,0.0,4.0,66,0.00,,,0.00,VWS V14.01,2013-10-04 15:30:00,
2013-10-04 11:35:00,76.7,64.5,30.12,SW,220,0.0,4.0,66,0.00,,,0.00,VWS V14.01,2013-10-04 15:35:00,
2013-10-04 11:40:00,77.9,64.8,30.12,SW,220,0.0,4.0,64,0.00,,,0.00,VWS V14.01,2013-10-04 15:40:00,
2013-10-04 11:44:00,78.5,64.9,30.11,SSW,200,0.0,4.0,63,0.00,,,0.00,VWS V14.01,2013-10-04 15:44:00,
2013-10-04 11:45:00,77.9,64.8,30.12,SW,220,0.0,4.0,64,0.00,,,0.00,VWS V14.01,2013-10-04 15:45:00,
2013-10-04 11:50:00,79.0,65.3,30.11,SSW,200,0.0,4.0,63,0.00,,,0.00,VWS V14.01,2013-10-04 15:50:00,
2013-10-04 11:59:00,77.4,64.7,30.12,SW,220,0.0,4.0,65,0.00,,,0.00,VWS V14.01,2013-10-04 15:59:00,
2013-10-04 12:00:00,76.8,65.0,30.12,SW,220,0.0,4.0,67,0.00,,,0.00,VWS V14.01,2013-10-04 16:00:00,
2013-10-04 12:04:00,76.8,64.6,30.12,SW,220,0.0,4.0,66,0.00,,,0.00,VWS V14.01,2013-10-04 16:04:00,
2013-10-04 12:09:00,77.2,64.5,30.12,SSW,197,0.0,4.0,65,0.00,,,0.00,VWS V14.01,2013-10-04 16:09:00,
2013-10-04 12:10:00,80.3,65.2,30.11,SSW,200,0.0,4.0,60,0.00,,,0.00,VWS V14.01,2013-10-04 16:10:00,
2013-10-04 12:14:00,77.9,65.2,30.12,SSW,197,0.0,4.0,65,0.00,,,0.00,VWS V14.01,2013-10-04 16:14:00,
2013-10-04 12:19:00,78.1,64.9,30.12,SSW,196,0.0,4.0,64,0.00,,,0.00,VWS V14.01,2013-10-04 16:19:00,
2013-10-04 12:20:00,77.9,65.2,30.12,SSW,207,1.0,4.0,65,0.00,,,0.00,VWS V14.01,2013-10-04 16:20:00,
2013-10-04 12:24:00,78.1,64.9,30.12,SSW,208,0.0,4.0,64,0.00,,,0.00,VWS V14.01,2013-10-04 16:24:00,
2013-10-04 12:30:00,77.9,65.2,30.11,SW,217,0.0,4.0,65,0.00,,,0.00,VWS V14.01,2013-10-04 16:30:00,
2013-10-04 12:34:00,77.9,65.2,30.12,SW,217,0.0,4.0,65,0.00,,,0.00,VWS V14.01,2013-10-04 16:34:00,
2013-10-04 12:39:00,77.9,65.2,30.11,SSW,200,0.0,4.0,65,0.00,,,0.00,VWS V14.01,2013-10-04 16:39:00,
2013-10-04 12:40:00,78.1,65.4,30.11,SSW,200,0.0,4.0,65,0.00,,,0.00,VWS V14.01,2013-10-04 16:40:00,
2013-10-04 12:44:00,78.1,65.4,30.11,SSW,200,0.0,4.0,65,0.00,,,0.00,VWS V14.01,2013-10-04 16:44:00,
2013-10-04 12:50:00,79.0,65.3,30.11,SSW,200,0.0,4.0,63,0.00,,,0.00,VWS V14.01,2013-10-04 16:50:00,
2013-10-04 12:54:00,78.8,65.2,30.11,SSW,200,0.0,4.0,63,0.00,,,0.00,VWS V14.01,2013-10-04 16:54:00,
2013-10-04 12:59:00,79.8,65.6,30.11,SSW,200,1.0,4.0,62,0.00,,,0.00,VWS V14.01,2013-10-04 16:59:00,
2013-10-04 13:00:00,80.5,65.3,30.11,SSW,200,0.0,4.0,60,0.00,,,0.00,VWS V14.01,2013-10-04 17:00:00,
2013-10-04 13:05:00,80.5,65.3,30.11,SSW,200,0.0,4.0,60,0.00,,,0.00,VWS V14.01,2013-10-04 17:05:00,
2013-10-04 13:10:00,80.3,64.7,30.08,ENE,60,0.0,4.0,59,0.00,,,0.00,VWS V14.01,2013-10-04 17:10:00,
2013-10-04 13:14:00,80.3,65.2,30.11,SSW,200,0.0,4.0,60,0.00,,,0.00,VWS V14.01,2013-10-04 17:14:00,
2013-10-04 13:19:00,80.5,64.9,30.10,SSW,200,0.0,4.0,59,0.00,,,0.00,VWS V14.01,2013-10-04 17:19:00,
2013-10-04 13:20:00,80.9,65.7,30.10,SSE,151,0.0,4.0,60,0.00,,,0.00,VWS V14.01,2013-10-04 17:20:00,
2013-10-04 13:24:00,80.7,65.1,30.10,SSE,150,0.0,4.0,59,0.00,,,0.00,VWS V14.01,2013-10-04 17:24:00,
2013-10-04 13:29:00,80.7,65.1,30.10,South,186,0.0,4.0,59,0.00,,,0.00,VWS V14.01,2013-10-04 17:29:00,
2013-10-04 13:30:00,79.4,64.3,30.07,ENE,60,0.0,4.0,60,0.00,,,0.00,VWS V14.01,2013-10-04 17:30:00,
2013-10-04 13:34:00,80.3,64.7,30.10,South,186,0.0,4.0,59,0.00,,,0.00,VWS V14.01,2013-10-04 17:34:00,
2013-10-04 13:40:00,79.9,65.3,30.10,South,186,0.0,4.0,61,0.00,,,0.00,VWS V14.01,2013-10-04 17:40:00,
2013-10-04 13:50:00,80.1,65.4,30.09,NNE,16,0.0,4.0,61,0.00,,,0.00,VWS V14.01,2013-10-04 17:50:00,
2013-10-04 13:59:00,80.3,64.7,30.09,NNE,16,0.0,4.0,59,0.00,,,0.00,VWS V14.01,2013-10-04 17:59:00,
2013-10-04 14:00:00,80.7,64.6,30.08,ENE,60,0.0,4.0,58,0.00,,,0.00,VWS V14.01,2013-10-04 18:00:00,
2013-10-04 14:04:00,80.5,63.9,30.08,ENE,60,0.0,4.0,57,0.00,,,0.00,VWS V14.01,2013-10-04 18:04:00,
2013-10-04 14:09:00,80.5,64.9,30.08,ENE,60,0.0,4.0,59,0.00,,,0.00,VWS V14.01,2013-10-04 18:09:00,
2013-10-04 14:10:00,80.3,64.7,30.08,ENE,60,0.0,4.0,59,0.00,,,0.00,VWS V14.01,2013-10-04 18:10:00,
2013-10-04 14:14:00,80.3,64.7,30.08,ENE,60,0.0,4.0,59,0.00,,,0.00,VWS V14.01,2013-10-04 18:14:00,
2013-10-04 14:19:00,80.1,65.0,30.08,ENE,60,0.0,4.0,60,0.00,,,0.00,VWS V14.01,2013-10-04 18:19:00,
2013-10-04 14:20:00,80.7,64.1,30.06,SW,223,0.0,4.0,57,0.00,,,0.00,VWS V14.01,2013-10-04 18:20:00,
2013-10-04 14:24:00,79.8,64.2,30.08,ENE,60,0.0,4.0,59,0.00,,,0.00,VWS V14.01,2013-10-04 18:24:00,
2013-10-04 14:29:00,79.6,65.0,30.08,ENE,60,0.0,4.0,61,0.00,,,0.00,VWS V14.01,2013-10-04 18:29:00,
2013-10-04 14:30:00,79.4,64.3,30.07,ENE,60,0.0,4.0,60,0.00,,,0.00,VWS V14.01,2013-10-04 18:30:00,
2013-10-04 14:34:00,79.4,64.3,30.07,ENE,60,0.0,4.0,60,0.00,,,0.00,VWS V14.01,2013-10-04 18:34:00,
2013-10-04 14:39:00,79.4,64.8,30.07,ENE,60,0.0,4.0,61,0.00,,,0.00,VWS V14.01,2013-10-04 18:39:00,
2013-10-04 14:40:00,79.4,64.8,30.07,ENE,60,0.0,4.0,61,0.00,,,0.00,VWS V14.01,2013-10-04 18:40:00,
2013-10-04 14:44:00,79.4,64.8,30.07,ENE,60,0.0,4.0,61,0.00,,,0.00,VWS V14.01,2013-10-04 18:44:00,
2013-10-04 14:49:00,79.6,65.0,30.07,ENE,60,0.0,4.0,61,0.00,,,0.00,VWS V14.01,2013-10-04 18:49:00,
2013-10-04 14:50:00,81.1,64.9,30.06,SSE,150,0.0,4.0,58,0.00,,,0.00,VWS V14.01,2013-10-04 18:50:00,
2013-10-04 14:54:00,79.6,64.5,30.07,ENE,60,0.0,4.0,60,0.00,,,0.00,VWS V14.01,2013-10-04 18:54:00,
2013-10-04 14:59:00,79.8,64.2,30.07,ENE,60,0.0,4.0,59,0.00,,,0.00,VWS V14.01,2013-10-04 18:59:00,
2013-10-04 15:00:00,79.8,64.7,30.07,ENE,60,0.0,4.0,60,0.00,,,0.00,VWS V14.01,2013-10-04 19:00:00,
2013-10-04 15:04:00,79.8,64.7,30.07,ENE,60,0.0,4.0,60,0.00,,,0.00,VWS V14.01,2013-10-04 19:04:00,
2013-10-04 15:09:00,79.9,64.3,30.07,ENE,60,0.0,4.0,59,0.00,,,0.00,VWS V14.01,2013-10-04 19:09:00,
2013-10-04 15:10:00,79.9,64.3,30.07,ENE,60,0.0,4.0,59,0.00,,,0.00,VWS V14.01,2013-10-04 19:10:00,
2013-10-04 15:14:00,79.9,64.3,30.07,ENE,60,0.0,4.0,59,0.00,,,0.00,VWS V14.01,2013-10-04 19:14:00,
2013-10-04 15:19:00,80.3,63.7,30.06,SW,226,0.0,4.0,57,0.00,,,0.00,VWS V14.01,2013-10-04 19:19:00,
2013-10-04 15:20:00,80.7,64.1,30.06,SW,223,0.0,4.0,57,0.00,,,0.00,VWS V14.01,2013-10-04 19:20:00,
2013-10-04 15:24:00,80.7,63.6,30.06,SW,223,0.0,4.0,56,0.00,,,0.00,VWS V14.01,2013-10-04 19:24:00,
2013-10-04 15:29:00,80.9,63.8,30.06,South,188,0.0,4.0,56,0.00,,,0.00,VWS V14.01,2013-10-04 19:29:00,
2013-10-04 15:30:00,80.9,64.2,30.06,South,188,0.0,4.0,57,0.00,,,0.00,VWS V14.01,2013-10-04 19:30:00,
2013-10-04 15:34:00,80.9,64.2,30.06,South,188,0.0,4.0,57,0.00,,,0.00,VWS V14.01,2013-10-04 19:34:00,
2013-10-04 15:40:00,81.1,64.4,30.06,SE,146,0.0,4.0,57,0.00,,,0.00,VWS V14.01,2013-10-04 19:40:00,
2013-10-04 15:44:00,80.9,64.2,30.06,SE,146,0.0,4.0,57,0.00,,,0.00,VWS V14.01,2013-10-04 19:44:00,
2013-10-04 15:49:00,81.1,64.9,30.06,SE,146,0.0,4.0,58,0.00,,,0.00,VWS V14.01,2013-10-04 19:49:00,
2013-10-04 15:50:00,81.1,64.9,30.06,SSE,150,0.0,4.0,58,0.00,,,0.00,VWS V14.01,2013-10-04 19:50:00,
2013-10-04 15:54:00,81.1,63.9,30.06,SSE,150,0.0,4.0,56,0.00,,,0.00,VWS V14.01,2013-10-04 19:54:00,
2013-10-04 15:59:00,81.1,63.9,30.06,SSW,202,0.0,4.0,56,0.00,,,0.00,VWS V14.01,2013-10-04 19:59:00,
2013-10-04 16:00:00,79.9,64.3,30.05,South,182,0.0,4.0,59,0.00,,,0.00,VWS V14.01,2013-10-04 20:00:00,
2013-10-04 16:04:00,81.1,64.4,30.06,SSW,199,0.0,4.0,57,0.00,,,0.00,VWS V14.01,2013-10-04 20:04:00,
2013-10-04 16:09:00,81.2,63.5,30.06,SSW,199,0.0,4.0,55,0.00,,,0.00,VWS V14.01,2013-10-04 20:09:00,
2013-10-04 16:10:00,81.2,63.5,30.06,SW,226,1.0,4.0,55,0.00,,,0.00,VWS V14.01,2013-10-04 20:10:00,
2013-10-04 16:14:00,81.2,63.5,30.06,SW,226,0.0,4.0,55,0.00,,,0.00,VWS V14.01,2013-10-04 20:14:00,
2013-10-04 16:19:00,81.2,64.0,30.05,SW,223,0.0,4.0,56,0.00,,,0.00,VWS V14.01,2013-10-04 20:19:00,
2013-10-04 16:20:00,81.2,64.0,30.05,South,185,0.0,4.0,56,0.00,,,0.00,VWS V14.01,2013-10-04 20:20:00,
2013-10-04 16:24:00,81.2,64.0,30.05,South,185,0.0,4.0,56,0.00,,,0.00,VWS V14.01,2013-10-04 20:24:00,
2013-10-04 16:29:00,81.2,64.0,30.05,SSW,201,0.0,4.0,56,0.00,,,0.00,VWS V14.01,2013-10-04 20:29:00,
2013-10-04 16:30:00,81.1,63.9,30.05,SW,223,0.0,4.0,56,0.00,,,0.00,VWS V14.01,2013-10-04 20:30:00,
2013-10-04 16:34:00,81.1,63.4,30.05,SW,223,0.0,4.0,55,0.00,,,0.00,VWS V14.01,2013-10-04 20:34:00,
2013-10-04 16:39:00,81.1,64.4,30.05,SW,223,0.0,4.0,57,0.00,,,0.00,VWS V14.01,2013-10-04 20:39:00,
2013-10-04 16:40:00,81.2,64.5,30.05,SW,223,0.0,4.0,57,0.00,,,0.00,VWS V14.01,2013-10-04 20:40:00,
2013-10-04 16:44:00,81.2,65.0,30.05,SW,223,1.0,4.0,58,0.00,,,0.00,VWS V14.01,2013-10-04 20:44:00,
2013-10-04 16:49:00,81.2,64.5,30.05,SW,223,0.0,4.0,57,0.00,,,0.00,VWS V14.01,2013-10-04 20:49:00,
2013-10-04 16:50:00,80.9,63.8,30.05,SW,223,0.0,4.0,56,0.00,,,0.00,VWS V14.01,2013-10-04 20:50:00,
2013-10-04 16:54:00,80.9,63.8,30.05,SW,223,0.0,4.0,56,0.00,,,0.00,VWS V14.01,2013-10-04 20:54:00,
2013-10-04 16:59:00,80.5,64.9,30.05,SW,223,0.0,4.0,59,0.00,,,0.00,VWS V14.01,2013-10-04 20:59:00,
2013-10-04 17:00:00,79.9,64.3,30.05,South,182,0.0,4.0,59,0.00,,,0.00,VWS V14.01,2013-10-04 21:00:00,
2013-10-04 17:04:00,80.1,64.5,30.05,South,182,0.0,4.0,59,0.00,,,0.00,VWS V14.01,2013-10-04 21:04:00,
2013-10-04 17:10:00,79.9,64.8,30.05,South,182,0.0,4.0,60,0.00,,,0.00,VWS V14.01,2013-10-04 21:10:00,
2013-10-04 17:15:00,79.8,63.7,30.05,South,182,0.0,4.0,58,0.00,,,0.00,VWS V14.01,2013-10-04 21:15:00,
2013-10-04 17:20:00,79.9,63.8,30.05,South,182,0.0,4.0,58,0.00,,,0.00,VWS V14.01,2013-10-04 21:20:00,
2013-10-04 17:25:00,80.3,63.2,30.05,SW,228,1.0,4.0,56,0.00,,,0.00,VWS V14.01,2013-10-04 21:25:00,
2013-10-04 17:30:00,79.4,64.3,30.05,SW,228,0.0,4.0,60,0.00,,,0.00,VWS V14.01,2013-10-04 21:30:00,
2013-10-04 17:35:00,80.9,63.2,30.05,SW,228,0.0,4.0,55,0.00,,,0.00,VWS V14.01,2013-10-04 21:35:00,
2013-10-04 17:40:00,78.8,63.8,30.05,SW,228,0.0,4.0,60,0.00,,,0.00,VWS V14.01,2013-10-04 21:40:00,
2013-10-04 17:45:00,80.9,63.8,30.05,SW,228,0.0,4.0,56,0.00,,,0.00,VWS V14.01,2013-10-04 21:45:00,
2013-10-04 17:50:00,80.9,63.8,30.05,SW,228,0.0,4.0,56,0.00,,,0.00,VWS V14.01,2013-10-04 21:50:00,
2013-10-04 17:55:00,80.9,63.8,30.05,SW,228,0.0,4.0,56,0.00,,,0.00,VWS V14.01,2013-10-04 21:55:00,
2013-10-04 18:00:00,80.9,63.8,30.05,SW,228,0.0,4.0,56,0.00,,,0.00,VWS V14.01,2013-10-04 22:00:00,
2013-10-04 18:05:00,80.7,64.1,30.05,SW,228,0.0,4.0,57,0.00,,,0.00,VWS V14.01,2013-10-04 22:05:00,
2013-10-04 18:10:00,80.3,64.2,30.05,SW,228,0.0,4.0,58,0.00,,,0.00,VWS V14.01,2013-10-04 22:10:00,
2013-10-04 18:15:00,80.1,63.5,30.05,SW,228,0.0,4.0,57,0.00,,,0.00,VWS V14.01,2013-10-04 22:15:00,
2013-10-04 18:20:00,80.3,64.7,30.05,SW,228,0.0,4.0,59,0.00,,,0.00,VWS V14.01,2013-10-04 22:20:00,
2013-10-04 18:25:00,80.1,64.5,30.05,SW,228,0.0,4.0,59,0.00,,,0.00,VWS V14.01,2013-10-04 22:25:00,
2013-10-04 18:30:00,79.6,64.0,30.05,SW,228,0.0,4.0,59,0.00,,,0.00,VWS V14.01,2013-10-04 22:30:00,
2013-10-04 18:35:00,79.4,64.3,30.05,SW,228,0.0,4.0,60,0.00,,,0.00,VWS V14.01,2013-10-04 22:35:00,
2013-10-04 18:40:00,79.0,63.9,30.05,SW,228,0.0,4.0,60,0.00,,,0.00,VWS V14.01,2013-10-04 22:40:00,
2013-10-04 18:45:00,78.8,63.8,30.05,SW,228,0.0,4.0,60,0.00,,,0.00,VWS V14.01,2013-10-04 22:45:00,
2013-10-04 18:50:00,78.6,64.0,30.05,SW,228,0.0,4.0,61,0.00,,,0.00,VWS V14.01,2013-10-04 22:50:00,
2013-10-04 18:55:00,78.5,64.4,30.05,SW,228,0.0,4.0,62,0.00,,,0.00,VWS V14.01,2013-10-04 22:55:00,
2013-10-04 19:00:00,78.1,64.0,30.05,SW,228,0.0,4.0,62,0.00,,,0.00,VWS V14.01,2013-10-04 23:00:00,
2013-10-04 19:05:00,77.9,63.8,30.05,SW,228,0.0,4.0,62,0.00,,,0.00,VWS V14.01,2013-10-04 23:05:00,
2013-10-04 19:10:00,77.7,64.1,30.05,SW,228,0.0,4.0,63,0.00,,,0.00,VWS V14.01,2013-10-04 23:10:00,
2013-10-04 19:15:00,77.6,64.0,30.05,SW,228,0.0,4.0,63,0.00,,,0.00,VWS V14.01,2013-10-04 23:15:00,
2013-10-04 19:20:00,77.4,64.3,30.06,SW,228,0.0,4.0,64,0.00,,,0.00,VWS V14.01,2013-10-04 23:20:00,
2013-10-04 19:25:00,77.4,64.3,30.06,SW,228,0.0,4.0,64,0.00,,,0.00,VWS V14.01,2013-10-04 23:25:00,
2013-10-04 19:30:00,77.2,64.5,30.06,SW,228,0.0,4.0,65,0.00,,,0.00,VWS V14.01,2013-10-04 23:30:00,
2013-10-04 19:35:00,76.8,64.6,30.06,SW,228,0.0,4.0,66,0.00,,,0.00,VWS V14.01,2013-10-04 23:35:00,
2013-10-04 19:40:00,76.5,64.3,30.06,SW,228,0.0,4.0,66,0.00,,,0.00,VWS V14.01,2013-10-04 23:40:00,
2013-10-04 19:45:00,76.3,64.6,30.06,SW,228,0.0,4.0,67,0.00,,,0.00,VWS V14.01,2013-10-04 23:45:00,
2013-10-04 19:50:00,76.1,64.4,30.06,SW,228,0.0,4.0,67,0.00,,,0.00,VWS V14.01,2013-10-04 23:50:00,
2013-10-04 19:55:00,76.0,64.3,30.06,SW,228,0.0,4.0,67,0.00,,,0.00,VWS V14.01,2013-10-04 23:55:00,
2013-10-04 20:00:00,75.8,64.5,30.06,SW,228,0.0,4.0,68,0.00,,,0.00,VWS V14.01,2013-10-05 00:00:00,
2013-10-04 20:05:00,75.6,64.3,30.06,SW,228,0.0,4.0,68,0.00,,,0.00,VWS V14.01,2013-10-05 00:05:00,
2013-10-04 20:10:00,75.4,64.5,30.06,SW,228,0.0,4.0,69,0.00,,,0.00,VWS V14.01,2013-10-05 00:10:00,
2013-10-04 20:15:00,75.4,64.5,30.06,SW,228,0.0,4.0,69,0.00,,,0.00,VWS V14.01,2013-10-05 00:15:00,
2013-10-04 20:20:00,75.4,64.9,30.06,SW,228,0.0,4.0,70,0.00,,,0.00,VWS V14.01,2013-10-05 00:20:00,
2013-10-04 20:25:00,75.4,64.5,30.06,SW,228,0.0,4.0,69,0.00,,,0.00,VWS V14.01,2013-10-05 00:25:00,
2013-10-04 20:30:00,75.3,64.4,30.06,SW,228,0.0,4.0,69,0.00,,,0.00,VWS V14.01,2013-10-05 00:30:00,
2013-10-04 20:35:00,75.3,64.4,30.07,SW,228,0.0,4.0,69,0.00,,,0.00,VWS V14.01,2013-10-05 00:35:00,
2013-10-04 20:40:00,75.1,64.7,30.07,SW,228,0.0,4.0,70,0.00,,,0.00,VWS V14.01,2013-10-05 00:40:00,
2013-10-04 20:45:00,74.9,64.9,30.07,SW,228,0.0,4.0,71,0.00,,,0.00,VWS V14.01,2013-10-05 00:45:00,
2013-10-04 20:50:00,74.9,64.9,30.08,SW,228,0.0,4.0,71,0.00,,,0.00,VWS V14.01,2013-10-05 00:50:00,
2013-10-04 20:55:00,74.7,64.7,30.08,SW,228,0.0,4.0,71,0.00,,,0.00,VWS V14.01,2013-10-05 00:55:00,
2013-10-04 21:00:00,74.4,64.8,30.08,SW,228,0.0,4.0,72,0.00,,,0.00,VWS V14.01,2013-10-05 01:00:00,
2013-10-04 21:05:00,74.4,64.8,30.07,SW,228,0.0,4.0,72,0.00,,,0.00,VWS V14.01,2013-10-05 01:05:00,
2013-10-04 21:10:00,74.4,64.4,30.07,SW,228,0.0,4.0,71,0.00,,,0.00,VWS V14.01,2013-10-05 01:10:00,
2013-10-04 21:15:00,74.4,64.8,30.07,SW,228,0.0,4.0,72,0.00,,,0.00,VWS V14.01,2013-10-05 01:15:00,
2013-10-04 21:20:00,74.2,64.6,30.07,SW,228,0.0,4.0,72,0.00,,,0.00,VWS V14.01,2013-10-05 01:20:00,
2013-10-04 21:25:00,74.2,64.6,30.07,SW,228,0.0,4.0,72,0.00,,,0.00,VWS V14.01,2013-10-05 01:25:00,
2013-10-04 21:30:00,74.0,64.4,30.07,SW,228,0.0,4.0,72,0.00,,,0.00,VWS V14.01,2013-10-05 01:30:00,
2013-10-04 21:35:00,74.0,64.4,30.07,SW,228,0.0,4.0,72,0.00,,,0.00,VWS V14.01,2013-10-05 01:35:00,
2013-10-04 21:40:00,73.9,64.7,30.07,SW,228,0.0,4.0,73,0.00,,,0.00,VWS V14.01,2013-10-05 01:40:00,
2013-10-04 21:45:00,73.9,64.3,30.07,SW,228,0.0,4.0,72,0.00,,,0.00,VWS V14.01,2013-10-05 01:45:00,
2013-10-04 21:50:00,73.9,64.3,30.08,SW,228,0.0,4.0,72,0.00,,,0.00,VWS V14.01,2013-10-05 01:50:00,
2013-10-04 21:55:00,73.9,64.3,30.08,SW,228,0.0,4.0,72,0.00,,,0.00,VWS V14.01,2013-10-05 01:55:00,
2013-10-04 22:00:00,73.9,64.3,30.08,SW,228,0.0,4.0,72,0.00,,,0.00,VWS V14.01,2013-10-05 02:00:00,
2013-10-04 22:05:00,73.9,64.3,30.07,SW,228,0.0,4.0,72,0.00,,,0.00,VWS V14.01,2013-10-05 02:05:00,
2013-10-04 22:10:00,73.7,64.5,30.07,SW,228,0.0,4.0,73,0.00,,,0.00,VWS V14.01,2013-10-05 02:10:00,
2013-10-04 22:15:00,73.7,64.5,30.07,SW,228,0.0,4.0,73,0.00,,,0.00,VWS V14.01,2013-10-05 02:15:00,
2013-10-04 22:20:00,73.7,64.5,30.07,SW,228,0.0,4.0,73,0.00,,,0.00,VWS V14.01,2013-10-05 02:20:00,
2013-10-04 22:26:00,73.7,64.5,30.07,SW,228,0.0,4.0,73,0.00,,,0.00,VWS V14.01,2013-10-05 02:26:00,
2013-10-04 22:30:00,73.7,64.5,30.07,SW,228,0.0,4.0,73,0.00,,,0.00,VWS V14.01,2013-10-05 02:30:00,
2013-10-04 22:31:00,73.7,64.5,30.07,SW,228,0.0,4.0,73,0.00,,,0.00,VWS V14.01,2013-10-05 02:31:00,
2013-10-04 22:36:00,73.7,64.5,30.07,SW,228,0.0,4.0,73,0.00,,,0.00,VWS V14.01,2013-10-05 02:36:00,
2013-10-04 22:40:00,73.9,64.7,30.07,SW,228,0.0,4.0,73,0.00,,,0.00,VWS V14.01,2013-10-05 02:40:00,
2013-10-04 22:41:00,73.9,64.7,30.07,SW,228,0.0,4.0,73,0.00,,,0.00,VWS V14.01,2013-10-05 02:41:00,
2013-10-04 22:46:00,73.9,64.7,30.07,SW,228,0.0,4.0,73,0.00,,,0.00,VWS V14.01,2013-10-05 02:46:00,
2013-10-04 22:50:00,73.9,64.7,30.07,SW,228,0.0,4.0,73,0.00,,,0.00,VWS V14.01,2013-10-05 02:50:00,
2013-10-04 22:51:00,73.9,64.7,30.07,SW,228,0.0,4.0,73,0.00,,,0.00,VWS V14.01,2013-10-05 02:51:00,
2013-10-04 22:56:00,73.9,64.7,30.07,SW,228,0.0,4.0,73,0.00,,,0.00,VWS V14.01,2013-10-05 02:56:00,
2013-10-04 23:00:00,73.0,64.6,30.07,SW,214,0.0,4.0,75,0.00,,,0.00,VWS V14.01,2013-10-05 03:00:00,
2013-10-04 23:01:00,73.9,64.7,30.07,SW,228,0.0,4.0,73,0.00,,,0.00,VWS V14.01,2013-10-05 03:01:00,
2013-10-04 23:06:00,73.9,64.7,30.08,SW,228,0.0,4.0,73,0.00,,,0.00,VWS V14.01,2013-10-05 03:06:00,
2013-10-04 23:10:00,72.8,64.8,30.07,SSW,212,0.0,4.0,76,0.00,,,0.00,VWS V14.01,2013-10-05 03:10:00,
2013-10-04 23:11:00,73.9,64.7,30.08,SW,228,0.0,4.0,73,0.00,,,0.00,VWS V14.01,2013-10-05 03:11:00,
2013-10-04 23:16:00,73.7,64.5,30.08,SW,228,0.0,4.0,73,0.00,,,0.00,VWS V14.01,2013-10-05 03:16:00,
2013-10-04 23:20:00,72.5,64.9,30.07,SSW,212,0.0,4.0,77,0.00,,,0.00,VWS V14.01,2013-10-05 03:20:00,
2013-10-04 23:21:00,73.7,64.9,30.07,SW,228,0.0,4.0,74,0.00,,,0.00,VWS V14.01,2013-10-05 03:21:00,
2013-10-04 23:26:00,73.5,64.7,30.07,SW,228,0.0,4.0,74,0.00,,,0.00,VWS V14.01,2013-10-05 03:26:00,
2013-10-04 23:30:00,72.3,64.7,30.07,SSW,211,0.0,4.0,77,0.00,,,0.00,VWS V14.01,2013-10-05 03:30:00,
2013-10-04 23:31:00,73.5,64.7,30.07,SW,228,0.0,4.0,74,0.00,,,0.00,VWS V14.01,2013-10-05 03:31:00,
2013-10-04 23:36:00,73.3,64.5,30.07,SE,144,2.0,4.0,74,0.00,,,0.00,VWS V14.01,2013-10-05 03:36:00,
2013-10-04 23:40:00,72.1,64.5,30.07,SSW,211,0.0,4.0,77,0.00,,,0.00,VWS V14.01,2013-10-05 03:40:00,
2013-10-04 23:41:00,73.3,64.5,30.07,South,174,0.0,4.0,74,0.00,,,0.00,VWS V14.01,2013-10-05 03:41:00,
2013-10-04 23:46:00,73.3,64.9,30.07,South,174,0.0,4.0,75,0.00,,,0.00,VWS V14.01,2013-10-05 03:46:00,
2013-10-04 23:50:00,71.8,64.6,30.07,SSW,209,0.0,4.0,78,0.00,,,0.00,VWS V14.01,2013-10-05 03:50:00,
2013-10-04 23:51:00,73.2,64.8,30.06,South,178,0.0,4.0,75,0.00,,,0.00,VWS V14.01,2013-10-05 03:51:00,
2013-10-04 23:56:00,73.2,64.8,30.06,SW,214,0.0,4.0,75,0.00,,,0.00,VWS V14.01,2013-10-05 03:56:00,